createdAt,value
2023-05-23T00:00:22.207Z,15.90
2023-05-23T00:03:24.758Z,15.80
2023-05-23T00:06:26.746Z,15.80
2023-05-23T00:09:28.632Z,15.80
2023-05-23T00:12:30.468Z,15.70
2023-05-23T00:15:33.785Z,15.70
2023-05-23T00:18:36.812Z,15.60
2023-05-23T00:21:38.687Z,15.70
2023-05-23T00:24:40.582Z,15.70
2023-05-23T00:27:42.282Z,15.60
2023-05-23T00:30:45.287Z,15.70
2023-05-23T00:40:41.478Z,15.60
2023-05-23T00:43:44.541Z,15.50
2023-05-23T00:46:51.118Z,15.50
2023-05-23T00:49:53.495Z,15.50
2023-05-23T00:52:57.727Z,15.60
2023-05-23T00:55:59.828Z,15.50
2023-05-23T00:59:01.739Z,15.50
2023-05-23T01:02:03.893Z,15.50
2023-05-23T01:05:06.142Z,15.60
2023-05-23T01:08:08.437Z,15.50
2023-05-23T01:11:21.933Z,15.50
2023-05-23T01:14:32.588Z,15.60
2023-05-23T01:18:01.154Z,15.40
2023-05-23T01:21:09.636Z,15.50
2023-05-23T01:24:43.863Z,15.50
2023-05-23T01:28:00.865Z,15.50
2023-05-23T01:31:04.385Z,15.40
2023-05-23T01:34:07.851Z,15.40
2023-05-23T01:37:11.332Z,15.40
2023-05-23T01:40:13.751Z,15.50
2023-05-23T01:43:16.449Z,15.50
2023-05-23T01:46:18.750Z,15.40
2023-05-23T01:49:22.505Z,15.20
2023-05-23T01:52:25.242Z,15.30
2023-05-23T01:55:27.687Z,15.40
2023-05-23T01:58:30.057Z,15.40
2023-05-23T02:01:33.500Z,15.50
2023-05-23T02:04:35.627Z,15.40
2023-05-23T02:07:37.523Z,15.40
2023-05-23T02:10:39.458Z,15.50
2023-05-23T02:13:41.431Z,15.50
2023-05-23T02:16:43.536Z,15.40
2023-05-23T02:19:45.629Z,15.40
2023-05-23T02:22:47.727Z,15.40
2023-05-23T02:25:49.577Z,15.40
2023-05-23T02:28:51.534Z,15.40
2023-05-23T02:31:53.439Z,15.30
2023-05-23T02:34:57.030Z,15.40
2023-05-23T02:37:59.635Z,15.40
2023-05-23T02:41:01.682Z,15.40
2023-05-23T02:44:03.694Z,15.20
2023-05-23T02:47:07.482Z,15.20
2023-05-23T02:50:10.002Z,15.20
2023-05-23T02:57:15.600Z,15.10
2023-05-23T03:00:18.459Z,15.00
2023-05-23T03:03:25.015Z,15.00
2023-05-23T03:06:27.818Z,14.90
2023-05-23T03:09:29.914Z,14.90
2023-05-23T03:12:31.909Z,14.80
2023-05-23T03:15:33.878Z,14.80
2023-05-23T03:18:36.175Z,14.70
2023-05-23T03:21:38.832Z,14.80
2023-05-23T03:24:40.900Z,14.80
2023-05-23T03:27:42.960Z,14.80
2023-05-23T03:30:45.017Z,14.80
2023-05-23T04:06:23.011Z,14.60
2023-05-23T04:20:25.208Z,14.60
2023-05-23T04:28:22.889Z,14.70
2023-05-23T05:18:18.938Z,14.50
2023-05-23T05:21:21.880Z,14.40
2023-05-23T05:24:23.701Z,14.40
2023-05-23T05:27:27.151Z,14.40
2023-05-23T05:30:30.631Z,14.40
2023-05-23T05:33:36.375Z,14.40
2023-05-23T05:36:48.198Z,14.30
2023-05-23T05:39:53.559Z,14.40
2023-05-23T05:42:56.235Z,14.40
2023-05-23T05:45:59.211Z,14.40
2023-05-23T05:49:01.225Z,14.40
2023-05-23T05:52:03.018Z,14.40
2023-05-23T05:55:11.181Z,14.40
2023-05-23T05:58:13.787Z,14.30
2023-05-23T06:01:35.097Z,14.20
2023-05-23T06:04:37.069Z,14.30
2023-05-23T06:07:39.892Z,14.30
2023-05-23T06:10:41.997Z,14.20
2023-05-23T06:13:44.167Z,14.10
2023-05-23T06:16:46.049Z,14.00
2023-05-23T06:19:48.104Z,14.10
2023-05-23T06:22:50.258Z,14.00
2023-05-23T06:25:52.922Z,14.00
2023-05-23T06:28:54.772Z,14.00
2023-05-23T06:31:57.190Z,14.10
2023-05-23T06:35:00.267Z,14.10
2023-05-23T06:38:02.115Z,14.00
2023-05-23T06:41:06.982Z,14.10
2023-05-23T06:44:09.913Z,14.10
2023-05-23T06:47:15.685Z,14.10
2023-05-23T06:50:20.094Z,14.10
2023-05-23T06:53:23.493Z,14.20
2023-05-23T06:56:26.201Z,14.20
2023-05-23T06:59:32.139Z,14.10
2023-05-23T07:02:34.124Z,14.10
2023-05-23T07:05:41.196Z,14.10
2023-05-23T07:08:46.745Z,14.20
2023-05-23T07:11:49.774Z,14.20
2023-05-23T07:14:52.320Z,14.20
2023-05-23T07:17:55.587Z,14.20
2023-05-23T07:20:58.161Z,14.20
2023-05-23T07:24:00.616Z,14.30
2023-05-23T07:27:03.746Z,14.30
2023-05-23T07:30:07.829Z,14.10
2023-05-23T07:33:11.719Z,14.20
2023-05-23T07:36:13.617Z,14.10
2023-05-23T07:39:15.632Z,14.10
2023-05-23T07:42:17.565Z,14.20
2023-05-23T07:45:19.718Z,14.10
2023-05-23T07:48:21.609Z,14.10
2023-05-23T07:51:24.105Z,14.10
2023-05-23T07:54:26.913Z,14.00
2023-05-23T07:57:32.990Z,13.90
2023-05-23T08:00:34.935Z,13.90
2023-05-23T08:03:45.186Z,13.90
2023-05-23T08:07:04.917Z,13.70
2023-05-23T08:10:22.111Z,13.90
2023-05-23T08:13:24.996Z,13.70
2023-05-23T08:16:47.166Z,13.60
2023-05-23T08:19:54.197Z,13.70
2023-05-23T08:23:01.944Z,13.70
2023-05-23T08:26:03.876Z,13.90
2023-05-23T08:29:06.983Z,13.70
2023-05-23T08:32:09.011Z,13.80
2023-05-23T08:35:10.977Z,13.80
2023-05-23T08:38:15.681Z,13.80
2023-05-23T08:41:37.234Z,13.70
2023-05-23T08:44:44.599Z,13.60
2023-05-23T08:47:47.643Z,13.40
2023-05-23T08:50:51.994Z,13.50
2023-05-23T08:53:56.451Z,13.40
2023-05-23T08:57:00.266Z,13.30
2023-05-23T09:00:10.329Z,13.30
2023-05-23T09:03:14.250Z,13.40
2023-05-23T09:06:26.195Z,13.50
2023-05-23T09:09:29.632Z,13.40
2023-05-23T09:12:33.301Z,13.50
2023-05-23T09:15:35.275Z,13.50
2023-05-23T09:18:43.059Z,13.50
2023-05-23T09:21:47.918Z,13.40
2023-05-23T09:24:56.279Z,13.40
2023-05-23T09:28:00.620Z,13.60
2023-05-23T09:31:08.792Z,13.30
2023-05-23T09:34:10.956Z,13.40
2023-05-23T09:37:19.013Z,13.10
2023-05-23T09:40:20.988Z,13.10
2023-05-23T09:43:34.504Z,13.30
2023-05-23T09:46:38.474Z,13.50
2023-05-23T09:49:41.388Z,13.80
2023-05-23T09:52:43.473Z,14.10
2023-05-23T09:55:45.590Z,14.70
2023-05-23T09:58:49.272Z,15.00
2023-05-23T10:01:52.996Z,15.10
2023-05-23T10:04:56.185Z,15.00
2023-05-23T10:08:03.055Z,14.90
2023-05-23T10:11:13.968Z,14.90
2023-05-23T10:14:17.702Z,14.80
2023-05-23T10:17:25.585Z,14.80
2023-05-23T10:20:34.058Z,14.80
2023-05-23T10:23:37.672Z,15.10
2023-05-23T10:26:39.980Z,15.20
2023-05-23T10:29:42.190Z,15.20
2023-05-23T10:32:44.574Z,15.10
2023-05-23T10:35:46.438Z,15.00
2023-05-23T10:39:00.209Z,14.90
2023-05-23T10:42:08.918Z,15.00
2023-05-23T10:45:21.810Z,15.00
2023-05-23T10:48:35.252Z,14.90
2023-05-23T10:51:39.981Z,14.70
2023-05-23T10:54:52.962Z,14.50
2023-05-23T10:58:20.399Z,14.80
2023-05-23T11:01:23.861Z,14.60
2023-05-23T11:04:29.540Z,14.50
2023-05-23T11:07:32.730Z,14.70
2023-05-23T11:11:01.881Z,14.60
2023-05-23T11:14:03.894Z,14.80
2023-05-23T11:17:29.524Z,14.70
2023-05-23T11:20:32.169Z,14.80
2023-05-23T11:23:44.304Z,14.90
2023-05-23T11:27:00.276Z,15.30
2023-05-23T11:30:10.009Z,15.40
2023-05-23T11:33:17.161Z,15.20
2023-05-23T11:36:20.913Z,15.00
2023-05-23T11:39:26.083Z,15.10
2023-05-23T11:42:27.965Z,15.10
2023-05-23T11:45:32.080Z,15.30
2023-05-23T11:48:33.927Z,15.40
2023-05-23T11:51:36.360Z,15.30
2023-05-23T11:54:42.599Z,15.70
2023-05-23T11:57:45.033Z,15.90
2023-05-23T12:00:47.093Z,15.90
2023-05-23T12:03:53.914Z,16.10
2023-05-23T12:06:57.347Z,16.20
2023-05-23T12:09:59.393Z,16.20
2023-05-23T12:13:01.868Z,16.30
2023-05-23T12:16:04.813Z,16.30
2023-05-23T12:19:07.222Z,16.20
2023-05-23T12:22:09.124Z,16.10
2023-05-23T12:25:11.618Z,16.30
2023-05-23T12:28:14.016Z,16.50
2023-05-23T12:31:22.004Z,16.30
2023-05-23T12:34:23.981Z,16.30
2023-05-23T12:37:26.017Z,16.40
2023-05-23T12:40:28.857Z,16.20
2023-05-23T12:43:30.989Z,16.30
2023-05-23T12:46:32.863Z,16.40
2023-05-23T12:49:34.906Z,16.60
2023-05-23T12:52:37.300Z,16.40
2023-05-23T12:55:39.371Z,16.50
2023-05-23T12:58:41.465Z,16.50
2023-05-23T13:01:43.438Z,16.60
2023-05-23T13:04:45.446Z,16.50
2023-05-23T13:07:47.323Z,16.40
2023-05-23T13:10:49.562Z,16.60
2023-05-23T13:13:52.017Z,16.40
2023-05-23T13:16:57.015Z,16.50
2023-05-23T13:19:58.934Z,16.80
2023-05-23T13:23:01.182Z,17.00
2023-05-23T13:26:03.991Z,17.00
2023-05-23T13:29:06.344Z,17.60
2023-05-23T13:32:10.306Z,16.90
2023-05-23T13:35:12.277Z,16.80
2023-05-23T13:38:14.124Z,17.00
2023-05-23T13:41:15.999Z,17.20
2023-05-23T13:44:19.650Z,16.80
2023-05-23T13:47:21.687Z,16.90
2023-05-23T13:50:23.661Z,16.90
2023-05-23T13:53:26.176Z,16.90
2023-05-23T13:56:28.268Z,16.90
2023-05-23T13:59:30.396Z,16.60
2023-05-23T14:02:32.310Z,16.40
2023-05-23T14:05:35.356Z,16.70
2023-05-23T14:08:37.279Z,16.50
2023-05-23T14:11:39.471Z,16.40
2023-05-23T14:14:41.531Z,16.50
2023-05-23T14:17:43.516Z,16.50
2023-05-23T14:20:45.551Z,16.50
2023-05-23T14:23:48.332Z,16.50
2023-05-23T14:26:50.303Z,16.50
2023-05-23T14:29:52.175Z,16.50
2023-05-23T14:32:54.672Z,16.50
2023-05-23T14:35:56.956Z,16.40
2023-05-23T14:38:58.874Z,16.30
2023-05-23T14:42:00.756Z,16.20
2023-05-23T14:45:02.703Z,16.40
2023-05-23T14:48:06.088Z,16.20
2023-05-23T14:51:08.141Z,16.40
2023-05-23T14:54:10.972Z,16.50
2023-05-23T14:57:12.954Z,16.30
2023-05-23T15:00:15.639Z,16.20
2023-05-23T15:03:17.874Z,16.00
2023-05-23T15:06:19.837Z,15.80
2023-05-23T15:09:22.195Z,15.80
2023-05-23T15:12:24.373Z,15.90
2023-05-23T15:15:27.115Z,16.10
2023-05-23T15:18:39.889Z,16.20
2023-05-23T15:21:50.581Z,16.30
2023-05-23T15:24:53.220Z,16.40
2023-05-23T15:27:56.352Z,16.30
2023-05-23T15:30:59.178Z,16.20
2023-05-23T15:34:01.059Z,16.10
2023-05-23T15:37:02.917Z,16.10
2023-05-23T15:40:08.364Z,16.10
2023-05-23T15:43:10.227Z,16.50
2023-05-23T15:46:12.166Z,16.30
2023-05-23T15:49:25.050Z,16.30
2023-05-23T15:52:28.815Z,16.70
2023-05-23T15:55:30.888Z,17.70
2023-05-23T15:58:32.810Z,16.30
2023-05-23T16:01:35.183Z,16.30
2023-05-23T16:04:37.277Z,16.40
2023-05-23T16:07:39.233Z,16.60
2023-05-23T16:10:41.789Z,16.50
2023-05-23T16:13:44.022Z,16.20
2023-05-23T16:16:47.117Z,17.30
2023-05-23T16:19:48.949Z,16.30
2023-05-23T16:22:50.946Z,16.40
2023-05-23T16:25:53.552Z,16.40
2023-05-23T16:28:55.370Z,16.30
2023-05-23T16:31:57.305Z,16.10
2023-05-23T16:34:59.251Z,16.30
2023-05-23T16:38:01.080Z,16.30
2023-05-23T16:41:03.035Z,16.50
2023-05-23T16:44:04.990Z,15.90
2023-05-23T16:47:07.037Z,16.00
2023-05-23T16:50:10.057Z,15.70
2023-05-23T16:53:11.913Z,15.40
2023-05-23T16:56:16.553Z,16.50
2023-05-23T16:59:18.479Z,15.20
2023-05-23T17:02:20.799Z,15.70
2023-05-23T17:05:23.040Z,16.10
2023-05-23T17:08:25.678Z,16.40
2023-05-23T17:11:27.550Z,16.70
2023-05-23T17:14:29.731Z,16.90
2023-05-23T17:17:31.657Z,17.10
2023-05-23T17:20:34.766Z,16.30
2023-05-23T17:23:36.573Z,17.00
2023-05-23T17:26:38.489Z,16.70
2023-05-23T17:29:43.530Z,16.80
2023-05-23T17:32:46.947Z,16.30
2023-05-23T17:35:49.159Z,16.80
2023-05-23T17:38:53.732Z,15.80
2023-05-23T17:41:55.861Z,16.00
2023-05-23T17:44:57.900Z,15.60
2023-05-23T17:48:03.584Z,15.70
2023-05-23T17:51:07.009Z,16.00
2023-05-23T17:54:08.800Z,15.30
2023-05-23T17:57:11.319Z,15.20
2023-05-23T18:00:13.671Z,16.30
2023-05-23T18:03:15.730Z,15.20
2023-05-23T18:06:17.935Z,15.40
2023-05-23T18:09:22.953Z,15.70
2023-05-23T18:12:28.590Z,16.20
2023-05-23T18:15:30.585Z,14.80
2023-05-23T18:18:32.683Z,14.80
2023-05-23T18:21:34.882Z,16.00
2023-05-23T18:24:36.865Z,15.80
2023-05-23T18:27:38.935Z,14.60
2023-05-23T18:30:40.986Z,14.50
2023-05-23T18:33:43.300Z,14.50
2023-05-23T18:36:45.360Z,15.80
2023-05-23T18:39:47.917Z,14.40
2023-05-23T18:42:50.646Z,15.30
2023-05-23T18:45:52.610Z,15.00
2023-05-23T18:48:54.563Z,14.10
2023-05-23T18:51:56.704Z,14.10
2023-05-23T18:54:58.769Z,14.00
2023-05-23T18:58:00.735Z,13.90
2023-05-23T19:01:03.889Z,14.50
2023-05-23T19:04:06.083Z,14.00
2023-05-23T19:07:08.009Z,13.90
2023-05-23T19:10:10.367Z,14.50
2023-05-23T19:13:13.770Z,13.70
2023-05-23T19:16:17.375Z,15.10
2023-05-23T19:19:22.646Z,14.40
2023-05-23T19:22:24.460Z,13.50
2023-05-23T19:25:26.259Z,13.30
2023-05-23T19:28:28.078Z,14.00
2023-05-23T19:31:30.296Z,13.60
2023-05-23T19:34:33.047Z,13.50
2023-05-23T19:37:34.885Z,13.30
2023-05-23T19:40:36.750Z,13.10
2023-05-23T19:43:38.666Z,13.10
2023-05-23T19:46:40.523Z,13.70
2023-05-23T19:49:42.853Z,14.00
2023-05-23T19:52:44.739Z,14.00
2023-05-23T19:55:46.835Z,12.80
2023-05-23T19:58:48.878Z,12.80
2023-05-23T20:01:51.015Z,12.80
2023-05-23T20:04:53.169Z,12.80
2023-05-23T20:07:55.216Z,12.60
2023-05-23T20:10:59.330Z,12.60
2023-05-23T20:14:04.166Z,12.70
2023-05-23T20:17:07.924Z,12.50
2023-05-23T20:20:10.326Z,12.40
2023-05-23T20:23:12.471Z,12.40
2023-05-23T20:26:14.322Z,13.10
2023-05-23T20:29:17.308Z,12.20
2023-05-23T20:32:20.150Z,13.40
2023-05-23T20:35:26.025Z,12.10
2023-05-23T20:38:29.145Z,14.00
2023-05-23T20:41:33.253Z,12.30
2023-05-23T20:44:37.756Z,11.90
2023-05-23T20:47:41.627Z,11.90
2023-05-23T20:50:44.503Z,11.90
2023-05-23T20:53:46.514Z,12.70
2023-05-23T20:56:48.330Z,11.90
2023-05-23T20:59:50.185Z,11.70
2023-05-23T21:02:52.122Z,12.10
2023-05-23T21:05:54.182Z,11.70
2023-05-23T21:08:56.278Z,11.50
2023-05-23T21:11:58.076Z,11.50
2023-05-23T21:15:00.254Z,11.40
2023-05-23T21:18:02.186Z,12.60
2023-05-23T21:21:04.206Z,11.40
2023-05-23T21:24:06.498Z,11.30
2023-05-23T21:27:08.798Z,11.30
2023-05-23T21:30:11.427Z,11.30
2023-05-23T21:33:13.278Z,11.20
2023-05-23T21:36:15.289Z,11.90
2023-05-23T21:39:17.141Z,11.20
2023-05-23T21:42:20.424Z,11.10
2023-05-23T21:45:22.393Z,12.20
2023-05-23T21:48:24.230Z,11.00
2023-05-23T21:51:26.083Z,10.90
2023-05-23T21:54:28.346Z,10.80
2023-05-23T21:57:30.237Z,10.70
2023-05-23T22:00:32.140Z,10.50
2023-05-23T22:03:34.027Z,11.10
2023-05-23T22:06:36.525Z,10.60
2023-05-23T22:09:38.591Z,10.40
2023-05-23T22:12:40.347Z,10.50
2023-05-23T22:15:42.113Z,10.40
2023-05-23T22:18:51.704Z,10.40
2023-05-23T22:21:53.863Z,10.40
2023-05-23T22:24:55.738Z,10.10
2023-05-23T22:27:57.481Z,10.10
2023-05-23T22:30:59.238Z,10.00
2023-05-23T22:34:01.136Z,10.00
2023-05-23T22:37:03.272Z,9.90
2023-05-23T22:40:05.863Z,9.90
2023-05-23T22:43:07.851Z,9.90
2023-05-23T22:46:09.630Z,9.80
2023-05-23T22:49:11.493Z,9.80
2023-05-23T22:52:13.301Z,9.80
2023-05-23T22:55:15.097Z,9.70
2023-05-23T22:58:16.860Z,9.80
2023-05-23T23:01:18.678Z,9.70
2023-05-23T23:04:23.468Z,9.70
2023-05-23T23:07:25.414Z,9.60
2023-05-23T23:10:27.218Z,9.60
2023-05-23T23:13:29.079Z,9.50
2023-05-23T23:16:30.947Z,9.50
2023-05-23T23:19:35.162Z,9.50
2023-05-23T23:22:37.138Z,9.50
2023-05-23T23:25:40.212Z,10.00
2023-05-23T23:28:41.944Z,9.50
2023-05-23T23:31:43.802Z,9.40
2023-05-23T23:34:45.930Z,9.30
2023-05-23T23:37:47.691Z,9.20
2023-05-23T23:40:49.469Z,9.20
2023-05-23T23:43:51.325Z,9.10
2023-05-23T23:46:53.137Z,9.20
2023-05-23T23:49:54.949Z,9.10
2023-05-23T23:52:57.978Z,9.10
2023-05-23T23:55:59.844Z,9.00
2023-05-23T23:59:01.623Z,9.00
